Time;durP1;ratioP1;P1;durP2;ratioP2;P2;SDS_P1;SDS_P2;PMS_P1;PMS_P2;Temp;Humidity;BMP_temperature;BMP_pressure;BME280_temperature;BME280_humidity;BME280_pressure;Samples;Min_cycle;Max_cycle;Signal;HPM_P1;HPM_P2
2022/03/24 00:00:54;;;;;;;16.42;8.07;;;;;;;6.82;33.97;100770.97;4479676;32;36194;-75
2022/03/24 00:03:40;;;;;;;23.75;6.85;;;;;;;6.71;34.39;100779.03;4480149;32;34185;-74
2022/03/24 00:06:27;;;;;;;16.12;6.47;;;;;;;7.09;32.45;100774.50;4472456;32;33320;-74
2022/03/24 00:09:13;;;;;;;19.00;7.62;;;;;;;7.34;32.14;100770.31;4478136;32;34605;-74
2022/03/24 00:11:59;;;;;;;18.95;8.85;;;;;;;7.19;32.43;100769.09;4472672;32;35048;-74
2022/03/24 00:14:46;;;;;;;20.70;9.48;;;;;;;6.60;34.77;100769.13;4479214;32;34254;-74
2022/03/24 00:17:33;;;;;;;18.42;9.55;;;;;;;6.20;36.24;100764.88;4479410;32;33610;-74
2022/03/24 00:20:20;;;;;;;20.90;9.85;;;;;;;6.23;36.75;100766.25;4468289;32;34904;-74
2022/03/24 00:23:06;;;;;;;18.45;8.05;;;;;;;5.97;36.56;100746.91;4480443;32;35487;-74
2022/03/24 00:25:53;;;;;;;14.48;7.20;;;;;;;6.11;35.54;100752.78;4480356;31;34158;-74
2022/03/24 00:28:39;;;;;;;15.60;7.32;;;;;;;6.35;34.67;100736.19;4474598;32;35481;-74
2022/03/24 00:31:25;;;;;;;21.30;7.85;;;;;;;5.77;35.99;100741.19;4479264;32;35721;-73
2022/03/24 00:34:13;;;;;;;15.73;6.25;;;;;;;5.68;37.18;100732.66;4479178;32;34469;-73
2022/03/24 00:36:59;;;;;;;16.67;7.30;;;;;;;5.33;36.02;100739.22;4479974;32;34371;-74
2022/03/24 00:39:48;;;;;;;17.27;6.35;;;;;;;6.10;35.38;100732.13;4478029;31;34732;-74
2022/03/24 00:42:36;;;;;;;15.68;6.07;;;;;;;6.22;34.71;100721.91;4475426;32;34860;-73
2022/03/24 00:45:23;;;;;;;14.38;6.70;;;;;;;6.55;34.14;100725.53;4469475;32;34148;-73
2022/03/24 00:48:10;;;;;;;15.30;6.53;;;;;;;6.73;34.47;100727.84;4477940;32;34185;-73
2022/03/24 00:50:56;;;;;;;15.18;6.55;;;;;;;6.78;34.27;100718.09;4461676;31;35420;-73
2022/03/24 00:53:43;;;;;;;16.52;6.82;;;;;;;6.62;34.82;100719.84;4479240;32;35979;-74
2022/03/24 00:56:29;;;;;;;13.38;6.70;;;;;;;6.46;35.44;100713.44;4468437;32;34283;-74
2022/03/24 00:59:15;;;;;;;15.35;6.95;;;;;;;6.61;34.99;100719.03;4474000;32;33808;-73
2022/03/24 01:02:02;;;;;;;17.80;7.25;;;;;;;6.27;36.39;100719.25;4475143;32;34735;-73
2022/03/24 01:04:49;;;;;;;15.98;7.60;;;;;;;5.91;37.61;100709.00;4476916;32;34423;-73
2022/03/24 01:07:39;;;;;;;13.68;6.65;;;;;;;5.75;38.00;100705.25;4479377;32;34705;-73
2022/03/24 01:10:25;;;;;;;16.50;8.02;;;;;;;5.73;38.16;100702.00;4465217;32;34829;-73
2022/03/24 01:13:11;;;;;;;15.35;6.78;;;;;;;5.48;38.43;100697.03;4468111;32;34452;-73
2022/03/24 01:15:58;;;;;;;13.18;5.40;;;;;;;5.74;37.34;100698.19;4479664;32;34967;-74
2022/03/24 01:18:45;;;;;;;17.00;7.45;;;;;;;6.05;35.58;100688.53;4467934;32;34647;-73
2022/03/24 01:21:31;;;;;;;13.43;6.37;;;;;;;6.16;35.25;100687.56;4480051;32;35152;-74
2022/03/24 01:24:18;;;;;;;13.55;6.35;;;;;;;6.14;35.36;100684.25;4479093;32;35621;-74
2022/03/24 01:27:05;;;;;;;14.68;6.85;;;;;;;6.11;35.80;100679.31;4478328;32;35988;-74
2022/03/24 01:29:54;;;;;;;17.83;7.28;;;;;;;6.03;36.84;100679.78;4471396;32;35612;-73
2022/03/24 01:32:40;;;;;;;16.62;7.57;;;;;;;5.67;37.67;100682.06;4460315;32;34626;-74
2022/03/24 01:35:27;;;;;;;14.35;7.15;;;;;;;5.58;38.70;100683.59;4470632;32;34705;-73
2022/03/24 01:38:16;;;;;;;16.75;6.85;;;;;;;5.71;37.27;100677.75;4479533;32;34918;-73
2022/03/24 01:41:03;;;;;;;15.10;7.00;;;;;;;5.82;36.80;100682.25;4464740;32;34906;-74
2022/03/24 01:43:50;;;;;;;14.93;5.97;;;;;;;5.85;36.76;100679.00;4467822;32;34186;-73
2022/03/24 01:46:36;;;;;;;16.55;6.62;;;;;;;5.64;36.35;100674.41;4479310;32;34655;-74
2022/03/24 01:49:24;;;;;;;13.60;5.87;;;;;;;5.80;36.27;100676.22;4479588;32;35176;-73
2022/03/24 01:52:12;;;;;;;10.48;4.95;;;;;;;6.12;35.18;100674.69;4468421;32;34535;-74
2022/03/24 01:54:59;;;;;;;16.95;6.25;;;;;;;6.01;35.29;100671.06;4473247;32;34159;-73
2022/03/24 01:57:46;;;;;;;16.17;6.03;;;;;;;5.78;35.92;100659.34;4478263;32;35317;-74
2022/03/24 02:00:32;;;;;;;12.75;6.35;;;;;;;5.23;37.96;100665.69;4478449;32;34824;-73
2022/03/24 02:03:20;;;;;;;12.68;6.05;;;;;;;5.55;38.61;100656.88;4479235;32;35133;-73
2022/03/24 02:06:06;;;;;;;14.43;6.12;;;;;;;5.63;38.36;100648.28;4471802;32;34981;-74
2022/03/24 02:08:55;;;;;;;14.87;7.20;;;;;;;5.30;39.08;100650.06;4469894;32;34472;-73
2022/03/24 02:11:41;;;;;;;14.35;5.93;;;;;;;5.45;38.66;100654.88;4458713;32;34891;-73
2022/03/24 02:14:29;;;;;;;11.50;5.97;;;;;;;5.27;38.65;100650.56;4478402;32;35255;-73
2022/03/24 02:17:19;;;;;;;12.43;5.28;;;;;;;5.41;38.76;100651.03;4478508;31;34193;-73
2022/03/24 02:20:09;;;;;;;18.02;5.87;;;;;;;5.38;38.27;100641.47;4478206;32;31331;-73
2022/03/24 02:22:55;;;;;;;12.48;6.12;;;;;;;5.27;38.67;100645.12;4478517;32;35940;-73
2022/03/24 02:25:43;;;;;;;14.98;6.18;;;;;;;4.84;40.28;100652.12;4470260;32;35354;-73
2022/03/24 02:28:30;;;;;;;16.98;6.07;;;;;;;5.07;39.41;100648.38;4471562;32;34256;-74
2022/03/24 02:31:16;;;;;;;15.55;6.10;;;;;;;5.35;38.23;100638.41;4478940;32;34743;-73
2022/03/24 02:37:11;;;;;;;15.63;6.40;;;;;;;4.83;40.54;100655.88;4471650;32;34708;-74
2022/03/24 02:39:59;;;;;;;14.87;5.95;;;;;;;4.66;40.54;100650.47;4475699;32;34211;-73
2022/03/24 02:42:46;;;;;;;14.20;6.65;;;;;;;4.46;40.40;100652.84;4469831;32;35271;-73
2022/03/24 02:45:32;;;;;;;19.42;7.10;;;;;;;3.80;42.79;100653.28;4478878;32;35337;-73
2022/03/24 02:48:18;;;;;;;14.50;6.10;;;;;;;4.11;41.69;100655.75;4479214;32;35443;-73
2022/03/24 02:51:06;;;;;;;14.38;6.22;;;;;;;4.40;40.27;100646.50;4475490;32;34154;-73
2022/03/24 02:53:52;;;;;;;15.57;6.40;;;;;;;4.08;41.07;100648.09;4477608;32;34201;-73
2022/03/24 02:56:42;;;;;;;12.20;6.18;;;;;;;4.44;40.05;100647.69;4477898;32;35042;-73
2022/03/24 02:59:28;;;;;;;14.40;5.80;;;;;;;4.79;38.72;100643.87;4478724;32;35441;-73
2022/03/24 03:02:17;;;;;;;12.73;7.00;;;;;;;5.10;37.63;100641.63;4478285;32;34246;-73
2022/03/24 03:05:04;;;;;;;16.42;5.68;;;;;;;5.43;36.61;100642.59;4475647;32;35458;-72
2022/03/24 03:07:51;;;;;;;14.82;6.05;;;;;;;5.44;36.92;100646.97;4478431;32;35053;-73
2022/03/24 03:10:38;;;;;;;14.85;6.37;;;;;;;5.50;36.75;100643.25;4478016;32;35184;-74
2022/03/24 03:13:24;;;;;;;13.13;6.25;;;;;;;5.49;37.34;100641.59;4478505;32;33696;-73
2022/03/24 03:16:10;;;;;;;16.87;5.93;;;;;;;5.62;37.17;100635.78;4477498;32;35520;-74
2022/03/24 03:18:57;;;;;;;12.30;5.93;;;;;;;5.59;37.54;100636.28;4477357;31;35029;-73
2022/03/24 03:21:44;;;;;;;15.32;6.07;;;;;;;5.79;36.36;100636.50;4477700;32;36389;-74
2022/03/24 03:24:31;;;;;;;17.80;5.80;;;;;;;5.58;36.37;100626.50;4477318;32;34525;-74
2022/03/24 03:27:18;;;;;;;14.23;5.68;;;;;;;5.93;35.59;100626.09;4473310;32;34613;-74
2022/03/24 03:30:05;;;;;;;12.93;6.37;;;;;;;5.85;36.23;100623.78;4467639;32;35589;-73
2022/03/24 03:32:51;;;;;;;12.73;6.18;;;;;;;6.00;36.76;100626.69;4478109;31;35220;-73
2022/03/24 03:35:37;;;;;;;14.43;6.03;;;;;;;5.73;37.78;100623.94;4464255;32;33965;-73
2022/03/24 03:38:24;;;;;;;13.85;6.62;;;;;;;5.97;36.88;100621.78;4480124;32;34246;-73
2022/03/24 03:41:11;;;;;;;14.10;6.43;;;;;;;5.05;40.06;100627.97;4472260;32;35914;-73
2022/03/24 03:43:58;;;;;;;12.30;6.18;;;;;;;5.38;39.79;100621.62;4477058;32;34614;-74
2022/03/24 03:46:45;;;;;;;10.43;5.30;;;;;;;5.54;38.69;100617.19;4479825;32;35113;-73
2022/03/24 03:49:31;;;;;;;16.00;6.40;;;;;;;5.47;38.32;100622.00;4479765;32;34776;-73
2022/03/24 03:52:37;;;;;;;13.32;6.10;;;;;;;5.45;38.94;100614.09;4473543;32;34512;-74
2022/03/24 03:55:24;;;;;;;12.40;5.70;;;;;;;5.09;40.20;100618.22;4471438;32;34117;-73
2022/03/24 03:58:11;;;;;;;13.13;6.30;;;;;;;4.85;40.75;100621.16;4480765;32;33757;-73
2022/03/24 04:00:57;;;;;;;15.05;7.07;;;;;;;5.10;39.82;100626.16;4480530;32;34619;-74
2022/03/24 04:03:44;;;;;;;14.38;6.90;;;;;;;5.30;38.44;100611.19;4480562;32;35663;-74
2022/03/24 04:06:30;;;;;;;14.05;6.70;;;;;;;5.49;36.64;100608.97;4457833;32;35367;-74
2022/03/24 04:09:16;;;;;;;16.77;6.95;;;;;;;5.34;36.64;100613.13;4480762;31;35167;-74
2022/03/24 04:12:03;;;;;;;16.23;7.50;;;;;;;5.62;35.86;100603.16;4479947;32;34608;-74
2022/03/24 04:14:50;;;;;;;16.77;7.18;;;;;;;5.27;36.49;100606.25;4459755;32;35839;-73
2022/03/24 04:17:37;;;;;;;16.60;6.82;;;;;;;4.62;37.62;100615.94;4467202;32;34796;-74
2022/03/24 04:20:23;;;;;;;13.60;6.60;;;;;;;4.59;37.48;100619.94;4475154;32;34182;-74
2022/03/24 04:23:09;;;;;;;15.85;7.15;;;;;;;4.24;38.19;100617.44;4472025;32;35480;-72
2022/03/24 04:25:56;;;;;;;18.87;7.47;;;;;;;4.53;37.75;100618.22;4476050;32;34636;-74
2022/03/24 04:28:45;;;;;;;13.13;7.07;;;;;;;4.63;37.95;100623.81;4476141;32;34170;-74
2022/03/24 04:31:31;;;;;;;15.02;7.30;;;;;;;4.99;37.05;100615.38;4477477;32;34140;-74
2022/03/24 04:34:17;;;;;;;15.57;7.10;;;;;;;4.52;37.87;100611.13;4480126;32;34217;-74
2022/03/24 04:37:04;;;;;;;16.50;7.35;;;;;;;5.13;37.03;100605.81;4480649;32;34591;-74
2022/03/24 04:39:50;;;;;;;13.13;6.10;;;;;;;4.97;37.53;100607.47;4480280;32;34610;-74
2022/03/24 04:42:36;;;;;;;16.27;8.02;;;;;;;5.68;36.46;100607.56;4456603;32;34453;-74
2022/03/24 04:45:23;;;;;;;13.75;6.60;;;;;;;5.13;37.34;100605.81;4472668;31;34129;-74
2022/03/24 04:48:10;;;;;;;13.32;6.87;;;;;;;6.03;35.41;100604.44;4480364;32;36019;-74
2022/03/24 04:50:56;;;;;;;19.35;7.62;;;;;;;6.29;34.65;100600.06;4479984;32;34642;-75
2022/03/24 04:53:42;;;;;;;16.02;8.63;;;;;;;6.10;35.21;100611.56;4480029;32;33824;-73
2022/03/24 04:56:28;;;;;;;16.33;7.68;;;;;;;6.42;34.03;100606.13;4479104;32;35600;-74
2022/03/24 04:59:15;;;;;;;15.40;7.82;;;;;;;6.14;34.86;100605.34;4480201;32;34145;-74
2022/03/24 05:02:01;;;;;;;15.35;8.15;;;;;;;6.16;34.12;100600.47;4479030;32;34555;-74
2022/03/24 05:04:47;;;;;;;15.95;7.53;;;;;;;6.07;34.63;100604.75;4468084;32;33770;-74
2022/03/24 05:07:34;;;;;;;16.75;7.90;;;;;;;6.65;33.92;100603.03;4470933;32;34219;-74
2022/03/24 05:10:20;;;;;;;20.50;7.80;;;;;;;6.48;34.83;100602.38;4480470;32;34986;-74
2022/03/24 05:13:06;;;;;;;16.45;8.10;;;;;;;6.23;35.26;100609.25;4466336;31;34863;-74
2022/03/24 05:15:56;;;;;;;15.00;7.20;;;;;;;6.52;34.36;100598.06;4473521;32;33368;-74
2022/03/24 05:18:42;;;;;;;17.35;8.13;;;;;;;6.60;34.10;100603.00;4479290;32;35258;-74
2022/03/24 05:21:31;;;;;;;18.02;8.23;;;;;;;6.69;33.75;100604.19;4475826;32;34931;-74
2022/03/24 05:24:17;;;;;;;17.80;8.65;;;;;;;6.65;34.04;100611.22;4466872;32;34191;-74
2022/03/24 05:27:05;;;;;;;16.90;8.85;;;;;;;5.91;34.92;100601.00;4478377;31;33862;-73
2022/03/24 05:29:51;;;;;;;16.17;7.95;;;;;;;5.00;37.59;100608.88;4479207;32;35384;-73
2022/03/24 05:32:41;;;;;;;15.38;7.70;;;;;;;5.66;36.55;100604.25;4477097;32;35902;-74
2022/03/24 05:35:29;;;;;;;18.75;7.75;;;;;;;5.93;35.94;100608.94;4467427;32;34240;-74
2022/03/24 05:38:16;;;;;;;15.25;7.37;;;;;;;6.35;35.33;100600.06;4467817;32;33689;-74
2022/03/24 05:41:04;;;;;;;16.00;7.55;;;;;;;5.91;35.73;100605.63;4466642;32;34112;-74
2022/03/24 05:44:02;;;;;;;17.02;7.85;;;;;;;6.40;35.10;100605.56;4478821;32;35357;-74
2022/03/24 05:46:56;;;;;;;17.80;8.27;;;;;;;6.61;34.58;100603.84;4479203;32;34544;-73
2022/03/24 05:49:43;;;;;;;17.90;8.23;;;;;;;6.74;34.10;100597.94;4478428;32;34209;-74
2022/03/24 05:52:31;;;;;;;21.33;8.80;;;;;;;5.99;35.60;100606.03;4479251;32;35213;-73
2022/03/24 05:55:18;;;;;;;21.35;9.30;;;;;;;6.31;35.06;100603.31;4478565;32;34961;-74
2022/03/24 05:58:04;;;;;;;20.60;9.07;;;;;;;6.17;35.47;100609.44;4479921;32;34688;-74
2022/03/24 06:00:51;;;;;;;18.67;8.60;;;;;;;6.30;34.96;100607.13;4479641;32;35044;-74
2022/03/24 06:03:38;;;;;;;17.55;8.38;;;;;;;6.69;34.52;100606.91;4472913;32;34126;-74
2022/03/24 06:06:25;;;;;;;21.60;8.68;;;;;;;6.93;34.15;100601.06;4458590;32;34483;-74
2022/03/24 06:09:11;;;;;;;19.42;9.52;;;;;;;7.04;33.79;100594.59;4478995;32;34967;-74
2022/03/24 06:11:58;;;;;;;21.52;10.50;;;;;;;7.12;33.61;100599.53;4479621;32;34340;-73
2022/03/24 06:14:45;;;;;;;23.75;10.45;;;;;;;6.75;34.72;100611.31;4474050;32;34664;-74
2022/03/24 06:17:31;;;;;;;17.95;8.90;;;;;;;6.97;34.58;100596.72;4479687;32;34987;-74
2022/03/24 06:20:18;;;;;;;24.45;8.98;;;;;;;7.51;33.40;100598.34;4463601;32;34623;-74
2022/03/24 06:23:04;;;;;;;20.08;9.98;;;;;;;7.65;33.35;100608.47;4479456;32;34092;-74
2022/03/24 06:25:50;;;;;;;23.23;9.70;;;;;;;8.00;33.27;100606.13;4479450;32;34719;-74
2022/03/24 06:28:37;;;;;;;21.27;10.15;;;;;;;8.56;32.34;100601.53;4467432;32;35479;-74
2022/03/24 06:31:23;;;;;;;24.63;10.27;;;;;;;8.81;32.01;100599.87;4478335;32;35435;-74
2022/03/24 06:34:09;;;;;;;25.10;9.30;;;;;;;8.14;32.40;100600.94;4479468;32;33874;-74
2022/03/24 06:36:56;;;;;;;20.10;9.85;;;;;;;7.99;32.84;100604.47;4469392;32;34291;-74
2022/03/24 06:39:42;;;;;;;22.80;9.70;;;;;;;8.52;32.82;100600.47;4478322;32;35593;-74
2022/03/24 06:42:29;;;;;;;22.77;9.98;;;;;;;9.07;31.63;100594.38;4474424;32;34219;-74
2022/03/24 06:45:15;;;;;;;23.85;10.57;;;;;;;9.35;31.17;100591.00;4479169;32;34113;-73
2022/03/24 06:48:02;;;;;;;23.38;10.25;;;;;;;9.40;30.90;100587.44;4478344;32;33631;-74
2022/03/24 06:50:49;;;;;;;20.67;9.77;;;;;;;9.88;30.37;100587.72;4478798;32;35952;-73
2022/03/24 06:53:35;;;;;;;18.20;9.15;;;;;;;9.67;30.63;100589.75;4468168;32;34103;-74
2022/03/24 06:56:22;;;;;;;18.37;8.93;;;;;;;10.34;29.69;100585.50;4478866;32;34030;-73
2022/03/24 06:59:08;;;;;;;17.12;8.13;;;;;;;10.27;29.66;100593.22;4475590;32;33637;-73
2022/03/24 07:01:55;;;;;;;14.57;8.10;;;;;;;10.62;28.17;100585.03;4478728;32;36059;-73
2022/03/24 07:04:41;;;;;;;15.60;8.88;;;;;;;10.94;26.85;100587.97;4475139;32;34787;-74
2022/03/24 07:07:27;;;;;;;21.55;8.35;;;;;;;11.18;26.46;100585.22;4478685;32;35303;-74
2022/03/24 07:10:13;;;;;;;17.45;8.13;;;;;;;11.30;25.60;100576.63;4475755;32;34710;-73
2022/03/24 07:13:00;;;;;;;16.35;7.75;;;;;;;11.68;24.96;100574.75;4462435;32;35005;-74
2022/03/24 07:15:47;;;;;;;17.17;8.02;;;;;;;11.73;24.83;100576.59;4480025;32;34637;-74
2022/03/24 07:18:34;;;;;;;17.50;9.23;;;;;;;12.03;23.87;100580.06;4472117;32;33699;-73
2022/03/24 07:21:20;;;;;;;13.82;8.73;;;;;;;12.08;23.61;100588.22;4478555;32;35606;-74
2022/03/24 07:24:06;;;;;;;13.35;8.27;;;;;;;12.21;23.12;100581.12;4480119;32;35105;-74
2022/03/24 07:26:53;;;;;;;15.38;8.48;;;;;;;12.32;23.15;100582.59;4480470;32;34723;-74
2022/03/24 07:29:39;;;;;;;16.87;8.98;;;;;;;12.39;23.01;100583.06;4481151;32;33734;-73
2022/03/24 07:32:25;;;;;;;16.75;8.85;;;;;;;12.66;22.93;100576.00;4474171;32;34707;-74
2022/03/24 07:35:14;;;;;;;14.65;9.55;;;;;;;12.66;23.12;100573.25;4472330;32;35680;-74
2022/03/24 07:38:00;;;;;;;20.30;8.13;;;;;;;12.51;22.71;100564.16;4480166;32;34634;-74
2022/03/24 07:40:46;;;;;;;15.25;8.48;;;;;;;12.74;22.89;100573.38;4463250;32;34262;-74
2022/03/24 07:43:33;;;;;;;13.60;8.00;;;;;;;12.94;22.82;100572.19;4476515;32;34694;-73
2022/03/24 07:46:19;;;;;;;15.75;8.45;;;;;;;12.96;22.71;100569.94;4478334;32;35956;-73
2022/03/24 07:49:06;;;;;;;16.30;9.07;;;;;;;13.16;22.75;100573.44;4480067;32;34416;-73
2022/03/24 07:51:53;;;;;;;14.90;8.88;;;;;;;13.11;22.31;100571.56;4480697;32;33663;-73
2022/03/24 07:55:01;;;;;;;13.80;8.45;;;;;;;13.09;22.54;100578.50;4479535;32;35604;-74
2022/03/24 07:57:47;;;;;;;16.77;8.85;;;;;;;13.57;22.33;100565.16;4469493;31;34558;-74
2022/03/24 08:00:33;;;;;;;20.12;9.02;;;;;;;13.65;22.47;100563.63;4478500;32;33813;-74
2022/03/24 08:03:21;;;;;;;20.10;9.88;;;;;;;13.63;22.38;100565.87;4480740;32;33494;-75
2022/03/24 08:06:07;;;;;;;14.57;9.00;;;;;;;14.00;22.63;100561.19;4479149;32;34151;-74
2022/03/24 08:08:55;;;;;;;18.15;9.93;;;;;;;14.20;22.51;100563.44;4479226;32;35585;-74
2022/03/24 08:11:41;;;;;;;19.70;9.45;;;;;;;13.81;22.63;100556.66;4469637;32;34672;-74
2022/03/24 08:14:27;;;;;;;16.02;9.95;;;;;;;14.11;22.81;100562.56;4472826;32;33850;-75
2022/03/24 08:17:14;;;;;;;21.50;9.45;;;;;;;14.10;22.51;100563.72;4460541;32;34200;-74
2022/03/24 08:20:00;;;;;;;20.23;9.48;;;;;;;14.62;23.03;100558.56;4476741;32;34895;-74
2022/03/24 08:22:52;;;;;;;17.12;9.23;;;;;;;14.91;22.33;100558.06;4479757;32;35543;-80
2022/03/24 08:25:48;;;;;;;;;;;;;;;15.13;22.43;100559.97;4482070;32;34318;-76
2022/03/24 08:28:34;;;;;;;16.60;8.63;;;;;;;15.30;21.80;100554.50;4486452;32;34979;-76
2022/03/24 08:31:21;;;;;;;16.73;8.85;;;;;;;15.34;21.62;100549.16;4487220;32;35033;-76
2022/03/24 08:34:07;;;;;;;18.80;10.45;;;;;;;15.81;20.91;100554.94;4474793;32;35597;-76
2022/03/24 08:36:53;;;;;;;14.65;8.90;;;;;;;15.48;20.97;100543.47;4486796;32;34469;-76
2022/03/24 08:39:40;;;;;;;16.92;9.77;;;;;;;15.84;20.33;100553.50;4486384;32;35558;-75
2022/03/24 08:42:26;;;;;;;13.05;7.68;;;;;;;16.37;20.51;100563.41;4486165;32;36018;-75
2022/03/24 08:45:13;;;;;;;14.15;7.93;;;;;;;15.77;19.40;100564.19;4475060;32;34794;-76
2022/03/24 08:48:00;;;;;;;14.98;7.82;;;;;;;16.09;19.88;100563.75;4474413;32;34204;-76
2022/03/24 08:50:46;;;;;;;14.82;7.68;;;;;;;16.15;19.15;100556.91;4486046;32;35587;-76
2022/03/24 08:53:32;;;;;;;11.98;6.65;;;;;;;16.56;18.97;100560.25;4486201;32;36085;-76
2022/03/24 08:56:18;;;;;;;11.52;7.20;;;;;;;16.63;18.75;100557.81;4486126;32;35741;-77
2022/03/24 08:59:05;;;;;;;12.82;7.53;;;;;;;16.61;17.76;100551.78;4471252;32;35322;-72
2022/03/24 09:01:51;;;;;;;12.60;7.05;;;;;;;16.64;17.94;100560.25;4477105;32;35482;-72
2022/03/24 09:04:38;;;;;;;12.52;7.20;;;;;;;16.28;17.78;100557.06;4476337;32;35075;-72
2022/03/24 09:07:45;;;;;;;11.98;6.62;;;;;;;16.99;17.80;100553.81;4470909;32;227440;-73
2022/03/24 09:10:32;;;;;;;13.30;7.30;;;;;;;17.05;17.44;100547.78;4470698;32;34214;-73
2022/03/24 09:13:18;;;;;;;12.85;6.15;;;;;;;17.25;17.12;100553.72;4470737;32;34637;-75
2022/03/24 09:16:05;;;;;;;11.85;6.50;;;;;;;17.51;16.59;100548.84;4468964;32;34760;-75
2022/03/24 09:18:51;;;;;;;13.00;6.95;;;;;;;17.69;16.60;100549.53;4476934;32;34644;-75
2022/03/24 09:21:38;;;;;;;13.77;6.70;;;;;;;18.04;15.71;100542.94;4480270;32;35060;-75
2022/03/24 09:24:24;;;;;;;13.32;6.85;;;;;;;17.95;16.12;100552.13;4470076;32;35426;-74
2022/03/24 09:27:11;;;;;;;11.35;6.53;;;;;;;17.91;16.04;100550.38;4481006;32;34969;-75
2022/03/24 09:29:57;;;;;;;12.05;6.60;;;;;;;17.72;16.44;100542.50;4480746;32;35332;-76
2022/03/24 09:32:46;;;;;;;14.57;7.20;;;;;;;17.48;16.20;100557.81;4473349;32;34719;-76
2022/03/24 09:35:33;;;;;;;12.98;7.18;;;;;;;17.55;16.21;100548.97;4475171;32;34278;-76
2022/03/24 09:38:20;;;;;;;11.80;6.82;;;;;;;17.92;16.44;100555.56;4480741;32;35611;-76
2022/03/24 09:41:07;;;;;;;14.45;7.82;;;;;;;18.04;16.24;100551.25;4474835;32;35952;-76
2022/03/24 09:43:54;;;;;;;13.23;6.90;;;;;;;18.29;16.63;100550.22;4468923;32;33925;-75
2022/03/24 09:46:41;;;;;;;13.32;7.72;;;;;;;18.19;16.35;100543.13;4461669;32;34618;-76
2022/03/24 09:49:33;;;;;;;14.27;8.63;;;;;;;18.52;16.76;100552.59;4477747;32;35946;-76
2022/03/24 09:52:21;;;;;;;14.02;8.18;;;;;;;17.97;17.04;100554.56;4477942;32;34948;-76
2022/03/24 09:55:09;;;;;;;16.10;8.68;;;;;;;18.28;17.09;100556.09;4468224;32;34322;-76
2022/03/24 09:57:56;;;;;;;16.83;8.90;;;;;;;18.67;16.69;100543.62;4476308;32;34710;-77
2022/03/24 10:01:00;;;;;;;14.43;8.93;;;;;;;18.59;17.34;100562.00;4479542;32;36951;-76
2022/03/24 10:04:08;;;;;;;15.90;9.40;;;;;;;17.84;17.86;100559.22;4474781;32;34630;-76
2022/03/24 10:07:02;;;;;;;12.70;8.65;;;;;;;18.04;17.31;100554.03;4470668;32;34068;-76
2022/03/24 10:09:50;;;;;;;16.98;9.40;;;;;;;18.48;17.38;100541.38;4473619;32;34229;-76
2022/03/24 10:12:37;;;;;;;15.30;9.40;;;;;;;18.25;17.62;100548.47;4479235;32;34914;-76
2022/03/24 10:15:25;;;;;;;15.32;8.68;;;;;;;18.67;17.37;100543.62;4477850;32;35084;-76
2022/03/24 10:18:16;;;;;;;14.57;9.07;;;;;;;18.90;17.08;100540.44;4479873;32;34151;-77
2022/03/24 10:21:03;;;;;;;15.20;8.95;;;;;;;19.11;17.08;100541.16;4472836;32;35567;-75
2022/03/24 10:23:49;;;;;;;13.77;8.82;;;;;;;18.40;16.98;100545.84;4479492;32;35966;-76
2022/03/24 10:27:03;;;;;;;16.05;8.88;;;;;;;19.17;17.08;100536.19;4476843;32;34221;-76
2022/03/24 10:29:54;;;;;;;15.82;8.75;;;;;;;18.69;17.04;100537.72;4477532;32;33921;-76
2022/03/24 10:32:54;;;;;;;14.43;8.30;;;;;;;18.50;16.69;100535.47;4466451;32;34689;-77
2022/03/24 10:35:41;;;;;;;16.08;7.37;;;;;;;18.94;16.39;100519.16;4478168;32;34952;-76
2022/03/24 10:38:32;;;;;;;13.50;8.10;;;;;;;19.28;16.04;100521.47;4466713;32;35390;-77
2022/03/24 10:41:23;;;;;;;14.67;8.20;;;;;;;19.67;15.20;100510.81;4472771;32;33800;-76
2022/03/24 10:44:10;;;;;;;;;;;;;;;20.00;15.82;100521.69;4479471;32;34730;-77
2022/03/24 10:46:56;;;;;;;14.35;8.18;;;;;;;19.76;15.52;100532.91;4467540;32;36069;-76
2022/03/24 10:49:43;;;;;;;12.90;8.68;;;;;;;19.14;15.51;100529.38;4479624;32;34781;-76
2022/03/24 10:52:33;;;;;;;13.57;8.90;;;;;;;19.28;15.48;100524.25;4479938;32;34419;-74
2022/03/24 10:55:44;;;;;;;13.68;8.70;;;;;;;18.82;16.05;100534.66;4460609;32;34995;-76
2022/03/24 10:58:38;;;;;;;13.25;8.95;;;;;;;19.10;16.49;100522.91;4463886;32;35008;-76
2022/03/24 11:01:26;;;;;;;14.27;8.65;;;;;;;20.06;15.51;100516.69;4462870;32;34131;-76
2022/03/24 11:04:13;;;;;;;14.38;8.45;;;;;;;19.88;15.97;100509.81;4468413;32;34138;-76
2022/03/24 11:06:59;;;;;;;15.13;8.20;;;;;;;19.89;15.46;100509.44;4479721;32;34680;-76
2022/03/24 11:09:46;;;;;;;14.32;8.82;;;;;;;20.05;15.68;100503.97;4479032;32;34582;-75
2022/03/24 11:12:38;;;;;;;15.75;9.13;;;;;;;19.66;15.39;100511.94;4475824;32;34164;-75
2022/03/24 11:15:25;;;;;;;16.35;8.57;;;;;;;19.35;15.82;100507.00;4464103;32;34780;-75
2022/03/24 11:18:13;;;;;;;15.15;8.90;;;;;;;20.20;15.59;100503.19;4468243;32;35757;-75
2022/03/24 11:21:08;;;;;;;16.40;8.90;;;;;;;20.15;15.01;100495.13;4467933;32;35737;-76
2022/03/24 11:23:54;;;;;;;15.23;9.18;;;;;;;19.90;15.81;100499.16;4475184;31;34244;-76
2022/03/24 11:26:40;;;;;;;14.70;10.02;;;;;;;19.93;15.53;100490.12;4475337;32;34079;-76
2022/03/24 11:29:27;;;;;;;17.10;8.88;;;;;;;20.19;15.45;100493.22;4479644;32;34217;-76
2022/03/24 11:32:14;;;;;;;14.68;9.32;;;;;;;20.49;15.32;100494.81;4466676;32;35012;-76
2022/03/24 11:35:02;;;;;;;11.80;8.60;;;;;;;19.99;15.33;100477.56;4474888;32;35385;-76
2022/03/24 11:37:49;;;;;;;15.43;9.30;;;;;;;19.66;15.31;100478.59;4477874;32;34829;-76
2022/03/24 11:40:36;;;;;;;16.20;9.90;;;;;;;20.06;15.71;100468.59;4470010;32;34583;-77
2022/03/24 11:43:22;;;;;;;13.43;8.75;;;;;;;19.99;15.02;100475.59;4461884;32;35282;-76
2022/03/24 11:46:11;;;;;;;13.40;8.35;;;;;;;20.67;15.04;100466.31;4478375;32;34764;-76
2022/03/24 11:49:16;;;;;;;11.02;6.97;;;;;;;20.93;14.13;100470.50;4478227;32;34098;-76
2022/03/24 11:52:03;;;;;;;13.60;8.00;;;;;;;20.65;13.62;100468.63;4466165;32;35474;-77
2022/03/24 11:54:52;;;;;;;15.98;9.57;;;;;;;20.41;14.31;100464.00;4459133;32;34500;-77
2022/03/24 11:57:39;;;;;;;13.25;8.68;;;;;;;19.98;15.07;100456.50;4469219;32;34279;-76
2022/03/24 12:00:25;;;;;;;14.63;8.73;;;;;;;19.98;14.84;100459.28;4477047;32;34254;-76
2022/03/24 12:03:37;;;;;;;15.27;8.57;;;;;;;19.69;15.13;100455.66;4482158;32;34711;-76
2022/03/24 12:06:42;;;;;;;14.40;8.77;;;;;;;19.67;15.25;100458.00;4475417;32;34995;-76
2022/03/24 12:09:32;;;;;;;14.27;8.75;;;;;;;20.40;15.01;100456.00;4474987;32;35128;-76
2022/03/24 12:12:18;;;;;;;12.08;8.06;;;;;;;20.12;15.04;100450.47;4477395;32;34153;-76
2022/03/24 12:15:15;;;;;;;10.57;7.00;;;;;;;20.22;14.87;100439.66;4476850;32;34672;-75
2022/03/24 12:18:05;;;;;;;10.75;6.57;;;;;;;20.59;14.00;100431.09;4481230;32;36518;-77
2022/03/24 12:21:03;;;;;;;15.07;6.60;;;;;;;20.36;13.96;100444.00;4464390;32;35397;-77
2022/03/24 12:24:06;;;;;;;10.20;6.45;;;;;;;21.34;13.33;100443.19;4481894;32;34328;-76
2022/03/24 12:26:54;;;;;;;12.55;5.82;;;;;;;20.73;13.61;100440.97;4473091;32;35627;-76
2022/03/24 12:29:40;;;;;;;9.07;5.53;;;;;;;20.85;13.45;100429.72;4463568;32;35875;-76
2022/03/24 12:32:28;;;;;;;10.48;6.43;;;;;;;20.95;13.21;100431.16;4480310;32;34805;-75
2022/03/24 12:35:43;;;;;;;10.65;6.45;;;;;;;20.41;13.89;100418.69;4475211;32;34769;-76
2022/03/24 12:38:35;;;;;;;10.95;6.43;;;;;;;20.11;14.10;100416.28;4479935;32;34696;-76
2022/03/24 12:41:22;;;;;;;13.55;7.62;;;;;;;20.62;14.25;100410.88;4482358;32;35038;-77
2022/03/24 12:44:09;;;;;;;12.13;7.28;;;;;;;20.19;14.82;100431.22;4462921;32;34888;-76
2022/03/24 12:46:59;;;;;;;17.45;7.72;;;;;;;20.50;14.90;100426.84;4477302;32;35329;-76
2022/03/24 12:49:45;;;;;;;13.23;7.53;;;;;;;20.59;14.84;100413.59;4482513;32;34694;-76
2022/03/24 12:52:56;;;;;;;12.73;7.72;;;;;;;20.95;14.81;100426.41;4478630;32;34599;-77
2022/03/24 12:55:45;;;;;;;12.63;7.00;;;;;;;21.22;14.48;100412.66;4481352;32;35298;-76
2022/03/24 12:58:31;;;;;;;11.00;6.93;;;;;;;21.14;14.32;100416.47;4481959;32;35075;-76
2022/03/24 13:01:17;;;;;;;11.77;7.65;;;;;;;21.14;14.38;100410.88;4480741;32;35669;-77